Time;durP1;ratioP1;P1;durP2;ratioP2;P2;SDS_P1;SDS_P2;PMS_P1;PMS_P2;Temp;Humidity;BMP_temperature;BMP_pressure;BME280_temperature;BME280_humidity;BME280_pressure;Samples;Min_cycle;Max_cycle;Signal;HPM_P1;HPM_P2
2022/01/21 00:00:22;;;;;;;12.88;2.70;;;;;;;1.82;86.09;103371.84;5053053;28;20028;-65
2022/01/21 00:02:47;;;;;;;14.68;2.25;;;;;;;1.92;86.50;103356.94;5052926;28;20107;-64
2022/01/21 00:05:14;;;;;;;18.02;2.40;;;;;;;1.93;85.96;103356.91;5035017;28;20044;-65
2022/01/21 00:07:39;;;;;;;15.32;2.70;;;;;;;1.90;86.40;103359.59;5035051;28;20025;-63
2022/01/21 00:10:07;;;;;;;19.58;2.80;;;;;;;1.91;86.10;103362.97;5053221;28;20486;-64
2022/01/21 00:12:33;;;;;;;22.50;3.42;;;;;;;2.05;86.28;103364.91;5052768;28;20492;-64
2022/01/21 00:14:59;;;;;;;12.57;2.65;;;;;;;2.11;86.38;103369.72;5035359;28;20048;-64
2022/01/21 00:17:24;;;;;;;9.50;2.22;;;;;;;2.12;86.01;103372.19;5053405;28;20040;-62
2022/01/21 00:30:02;;;;;;;13.00;2.15;;;;;;;2.07;86.13;103378.41;5053121;28;20082;-65
2022/01/21 00:30:47;;;;;;;8.80;2.28;;;;;;;1.85;86.44;103381.09;5052779;28;20149;-64
2022/01/21 00:33:12;;;;;;;13.18;2.30;;;;;;;1.88;85.56;103379.22;5034839;28;20020;-64
2022/01/21 00:35:37;;;;;;;13.05;2.40;;;;;;;1.83;86.07;103382.84;5052629;28;20068;-64
2022/01/21 00:38:03;;;;;;;14.75;2.67;;;;;;;1.83;86.38;103380.31;5034847;28;20033;-64
2022/01/21 00:40:29;;;;;;;18.95;2.72;;;;;;;1.89;86.90;103390.25;5056105;28;20104;-63
2022/01/21 00:43:11;;;;;;;17.67;2.25;;;;;;;1.90;86.65;103385.09;5038385;28;20463;-64
2022/01/21 00:45:36;;;;;;;13.68;1.80;;;;;;;1.89;85.96;103390.25;5056910;28;20025;-65
2022/01/21 00:48:02;;;;;;;12.60;1.80;;;;;;;1.91;86.17;103398.66;5038455;28;20032;-64
2022/01/21 00:50:28;;;;;;;21.45;1.67;;;;;;;1.98;85.56;103395.75;5038213;28;20119;-64
2022/01/21 00:52:53;;;;;;;12.70;1.80;;;;;;;1.97;85.29;103393.28;5056195;28;20079;-64
2022/01/21 00:55:19;;;;;;;9.20;1.42;;;;;;;2.06;85.06;103392.88;5056699;28;20021;-64
2022/01/21 00:57:44;;;;;;;17.63;2.15;;;;;;;1.96;85.41;103394.19;5056127;28;20060;-66
2022/01/21 01:00:11;;;;;;;17.73;1.80;;;;;;;1.90;85.73;103399.53;5056493;28;20025;-65
2022/01/21 01:02:38;;;;;;;12.55;1.77;;;;;;;1.85;85.96;103394.66;5056320;28;20398;-65
2022/01/21 01:05:05;;;;;;;14.95;1.90;;;;;;;1.83;85.99;103385.41;5056009;28;20028;-64
2022/01/21 01:07:31;;;;;;;12.10;1.90;;;;;;;1.81;86.08;103377.81;5056060;28;20025;-65
2022/01/21 01:09:58;;;;;;;12.68;1.67;;;;;;;1.80;85.98;103366.78;5038148;28;20388;-63
2022/01/21 01:12:51;;;;;;;12.32;1.50;;;;;;;1.74;86.28;103377.25;5034782;28;20068;-64
2022/01/21 01:20:46;;;;;;;7.32;1.70;;;;;;;1.87;85.65;103382.66;5014847;28;20048;-64
2022/01/21 01:28:32;;;;;;;12.25;1.63;;;;;;;1.67;86.11;103367.38;5036383;28;20075;-64
2022/01/21 01:30:57;;;;;;;11.35;2.00;;;;;;;1.70;86.13;103368.09;5035530;28;20155;-65
2022/01/21 01:33:25;;;;;;;16.05;2.28;;;;;;;1.70;86.53;103373.19;5034234;28;20064;-64
2022/01/21 01:35:51;;;;;;;13.90;1.75;;;;;;;1.63;86.32;103363.31;5035847;28;20025;-65
2022/01/21 01:40:50;;;;;;;8.20;1.65;;;;;;;1.57;86.86;103372.03;5035681;28;20051;-64
2022/01/21 01:51:15;;;;;;;14.80;2.40;;;;;;;1.66;87.61;103381.84;5035403;28;20079;-65
2022/01/21 01:53:52;;;;;;;10.43;1.73;;;;;;;1.61;87.60;103378.66;5035310;28;20415;-64
2022/01/21 01:56:20;;;;;;;14.60;2.13;;;;;;;1.56;87.96;103378.03;5035582;28;20040;-65
2022/01/21 01:58:46;;;;;;;15.85;2.03;;;;;;;1.68;88.82;103386.91;5035203;28;20104;-65
2022/01/21 02:01:12;;;;;;;10.05;2.00;;;;;;;1.72;87.75;103386.69;5035172;28;20064;-66
2022/01/21 02:03:38;;;;;;;14.63;1.88;;;;;;;1.70;88.00;103387.66;5034974;28;20056;-63
2022/01/21 02:06:04;;;;;;;10.90;1.70;;;;;;;1.73;87.68;103385.81;5033679;28;20049;-65
2022/01/21 02:08:30;;;;;;;15.88;2.10;;;;;;;1.80;88.13;103388.91;5034750;28;20028;-65
2022/01/21 02:10:55;;;;;;;19.77;1.70;;;;;;;1.90;87.99;103390.19;5035382;28;20064;-64
2022/01/21 02:13:24;;;;;;;7.53;1.40;;;;;;;1.80;87.93;103387.19;5046727;28;20478;-64
2022/01/21 02:15:57;;;;;;;12.27;1.92;;;;;;;1.86;87.68;103383.53;5036687;28;20057;-64
2022/01/21 02:21:37;;;;;;;18.08;1.77;;;;;;;1.88;87.83;103381.75;5054772;28;20509;-65
2022/01/21 02:24:17;;;;;;;9.15;1.42;;;;;;;1.82;88.43;103382.03;5036523;28;20025;-65
2022/01/21 02:26:44;;;;;;;11.50;1.50;;;;;;;1.83;87.84;103372.66;5036554;28;20021;-65
2022/01/21 02:29:11;;;;;;;7.15;1.20;;;;;;;1.86;87.81;103381.00;5036386;28;20021;-64
2022/01/21 02:31:38;;;;;;;8.05;1.13;;;;;;;1.85;88.48;103379.34;5054576;28;20028;-64
2022/01/21 02:34:05;;;;;;;6.40;1.45;;;;;;;1.94;87.43;103370.47;5054348;28;20141;-63
2022/01/21 02:36:31;;;;;;;12.27;1.48;;;;;;;1.99;87.65;103374.47;5054266;28;20017;-64
2022/01/21 02:38:56;;;;;;;8.30;1.27;;;;;;;2.07;87.46;103368.19;5036317;28;20360;-64
2022/01/21 02:41:22;;;;;;;7.03;1.35;;;;;;;2.15;86.78;103366.97;5054098;28;20028;-64
2022/01/21 02:43:48;;;;;;;8.68;1.45;;;;;;;2.14;86.96;103375.53;5054023;28;20032;-64
2022/01/21 02:46:15;;;;;;;10.98;1.30;;;;;;;2.01;87.38;103374.41;5054070;28;20025;-65
2022/01/21 02:48:41;;;;;;;3.85;0.93;;;;;;;1.92;87.30;103370.53;5036048;28;20025;-65
2022/01/21 02:51:09;;;;;;;6.65;1.05;;;;;;;1.95;87.64;103369.56;5036054;28;20039;-64
2022/01/21 02:56:12;;;;;;;3.15;0.70;;;;;;;1.86;87.71;103363.16;5053924;28;20112;-63
2022/01/21 02:58:39;;;;;;;7.57;1.60;;;;;;;1.85;87.67;103366.59;5053798;28;20016;-64
2022/01/21 03:01:06;;;;;;;7.93;1.05;;;;;;;1.86;87.85;103359.78;5053800;28;20407;-64
2022/01/21 03:03:31;;;;;;;8.23;1.35;;;;;;;1.79;88.11;103367.69;5053632;28;20017;-64
2022/01/21 03:05:56;;;;;;;8.45;1.38;;;;;;;1.75;88.09;103366.16;5035828;28;20036;-63
2022/01/21 03:08:22;;;;;;;11.25;1.77;;;;;;;1.83;87.83;103375.22;5035877;28;20021;-64
2022/01/21 03:10:48;;;;;;;7.85;1.10;;;;;;;1.87;87.43;103374.16;5053646;28;20033;-64
2022/01/21 03:13:14;;;;;;;8.27;1.17;;;;;;;1.84;87.55;103377.69;5053546;28;20044;-63
2022/01/21 03:15:40;;;;;;;6.13;1.40;;;;;;;1.79;87.40;103369.41;5035653;28;20039;-64
2022/01/21 03:18:05;;;;;;;7.68;1.55;;;;;;;1.84;87.50;103372.56;5035651;28;20016;-64
2022/01/21 03:20:30;;;;;;;15.57;1.92;;;;;;;1.89;87.09;103382.59;5035669;28;20044;-64
2022/01/21 03:22:57;;;;;;;12.95;1.50;;;;;;;1.91;86.98;103384.19;5035508;28;20059;-64
2022/01/21 03:25:22;;;;;;;7.45;1.95;;;;;;;1.78;87.01;103383.91;5035509;28;20029;-63
2022/01/21 03:27:47;;;;;;;8.20;1.20;;;;;;;1.66;87.38;103389.50;5053455;28;20356;-64
2022/01/21 03:30:13;;;;;;;11.82;1.85;;;;;;;1.52;87.83;103384.16;5053443;28;20027;-64
2022/01/21 03:32:38;;;;;;;9.30;1.77;;;;;;;1.49;88.38;103387.66;5053691;28;20521;-64
2022/01/21 03:35:04;;;;;;;6.80;1.58;;;;;;;1.41;88.22;103384.63;5053370;28;20025;-65
2022/01/21 03:37:30;;;;;;;9.00;1.10;;;;;;;1.38;88.65;103399.16;5035501;28;20426;-65
2022/01/21 03:39:56;;;;;;;10.48;1.20;;;;;;;1.47;89.21;103392.00;5035529;28;20029;-64
2022/01/21 03:42:21;;;;;;;14.48;2.10;;;;;;;1.66;88.72;103389.50;5053336;28;20028;-65
2022/01/21 03:44:46;;;;;;;5.65;1.20;;;;;;;1.82;89.27;103393.97;5035388;28;20116;-64
2022/01/21 03:47:11;;;;;;;6.75;1.75;;;;;;;1.98;87.95;103397.50;5053168;28;20115;-64
2022/01/21 03:49:40;;;;;;;7.22;1.23;;;;;;;1.94;88.37;103391.69;5053800;28;20020;-65
2022/01/21 03:52:06;;;;;;;8.50;1.08;;;;;;;2.10;88.01;103388.47;5035344;28;20082;-65
2022/01/21 03:54:32;;;;;;;9.23;1.58;;;;;;;2.21;87.86;103392.19;5053132;28;20043;-64
2022/01/21 03:56:59;;;;;;;7.60;1.40;;;;;;;2.36;87.07;103392.41;5053187;28;20021;-65
2022/01/21 03:59:25;;;;;;;11.50;1.42;;;;;;;2.37;87.63;103407.66;5053104;28;20048;-64
2022/01/21 04:01:50;;;;;;;12.82;1.63;;;;;;;2.34;87.93;103395.06;5053167;28;20107;-64
2022/01/21 04:04:15;;;;;;;8.38;1.05;;;;;;;2.39;88.61;103397.41;5035136;28;20051;-64
2022/01/21 04:06:41;;;;;;;10.25;1.45;;;;;;;2.36;88.49;103398.38;5053061;28;20531;-64
2022/01/21 04:09:06;;;;;;;15.93;1.42;;;;;;;2.38;88.33;103404.22;5035127;28;20054;-64
2022/01/21 04:11:31;;;;;;;8.52;1.30;;;;;;;2.43;87.91;103406.56;5053324;28;20053;-64
2022/01/21 04:13:57;;;;;;;5.72;2.00;;;;;;;2.34;88.64;103407.00;5053982;28;20052;-65
2022/01/21 04:16:22;;;;;;;6.93;1.13;;;;;;;2.37;88.32;103397.47;5057029;28;20025;-65
2022/01/21 04:18:48;;;;;;;7.97;1.25;;;;;;;2.40;88.30;103399.06;5039068;28;20017;-64
2022/01/21 04:21:13;;;;;;;6.85;1.30;;;;;;;2.35;87.95;103408.63;5038933;28;20035;-65
2022/01/21 04:23:39;;;;;;;10.18;1.48;;;;;;;2.27;88.80;103411.50;5056832;28;20032;-65
2022/01/21 04:26:04;;;;;;;7.70;1.10;;;;;;;2.30;88.08;103411.38;5039727;28;20017;-65
2022/01/21 04:28:30;;;;;;;6.95;1.10;;;;;;;2.28;87.84;103408.09;5057344;28;20029;-64
2022/01/21 04:30:56;;;;;;;7.57;1.25;;;;;;;2.30;87.95;103408.00;5056724;28;20426;-64
2022/01/21 04:33:21;;;;;;;7.07;1.02;;;;;;;2.41;87.84;103396.41;5056660;28;20029;-65
2022/01/21 04:35:47;;;;;;;9.35;1.73;;;;;;;2.42;87.64;103389.59;5057207;28;20029;-62
2022/01/21 04:38:15;;;;;;;11.77;1.20;;;;;;;2.31;87.71;103391.81;5057120;28;20112;-64
2022/01/21 04:40:58;;;;;;;8.90;1.17;;;;;;;2.23;87.98;103395.53;5056559;28;20021;-64
2022/01/21 04:48:51;;;;;;;6.15;1.10;;;;;;;1.98;88.73;103380.47;5056853;28;20040;-64
2022/01/21 04:51:21;;;;;;;14.48;1.92;;;;;;;1.95;88.62;103392.53;5038483;28;20021;-65
2022/01/21 04:53:48;;;;;;;10.52;1.88;;;;;;;1.92;88.76;103385.00;5056232;28;20025;-64
2022/01/21 04:56:14;;;;;;;7.00;1.25;;;;;;;1.88;88.88;103388.59;5056349;28;20056;-64
2022/01/21 04:58:39;;;;;;;6.03;1.50;;;;;;;1.98;89.23;103390.66;5056234;28;20116;-64
2022/01/21 05:01:06;;;;;;;10.13;1.73;;;;;;;1.96;88.01;103391.66;5056212;28;20072;-64
2022/01/21 05:03:33;;;;;;;9.60;1.98;;;;;;;1.97;88.73;103389.00;5038136;28;20071;-64
2022/01/21 05:06:00;;;;;;;7.65;1.70;;;;;;;1.91;88.89;103381.63;5038116;28;20115;-64
2022/01/21 05:08:31;;;;;;;10.27;2.08;;;;;;;1.87;89.02;103387.78;5056596;28;20024;-65
2022/01/21 05:10:56;;;;;;;10.05;1.90;;;;;;;1.79;89.30;103384.72;5038215;28;20025;-66
2022/01/21 05:13:25;;;;;;;10.48;2.47;;;;;;;1.79;89.21;103375.34;5037894;28;20103;-65
2022/01/21 05:18:25;;;;;;;8.80;2.97;;;;;;;1.79;89.58;103384.72;5056500;28;20124;-65
2022/01/21 05:20:51;;;;;;;12.80;2.30;;;;;;;1.84;89.26;103379.41;5056083;28;20048;-64
2022/01/21 05:23:16;;;;;;;10.88;2.40;;;;;;;1.78;89.98;103383.91;5055741;28;20468;-64
2022/01/21 05:25:41;;;;;;;8.70;2.42;;;;;;;1.83;89.12;103381.13;5054536;28;20033;-64
2022/01/21 05:28:07;;;;;;;9.98;2.50;;;;;;;1.79;89.29;103383.00;5055686;28;20025;-64
2022/01/21 05:30:33;;;;;;;10.38;2.55;;;;;;;1.93;89.28;103376.47;5037827;28;20445;-64
2022/01/21 05:32:59;;;;;;;9.95;2.25;;;;;;;1.83;89.38;103382.84;5037738;28;20025;-64
2022/01/21 05:35:24;;;;;;;7.00;2.20;;;;;;;1.74;89.58;103381.53;5055553;28;20169;-64
2022/01/21 05:37:49;;;;;;;9.77;2.17;;;;;;;1.69;89.22;103384.25;5055672;28;20032;-63
2022/01/21 05:40:17;;;;;;;8.85;2.08;;;;;;;1.70;89.13;103380.00;5055516;28;20155;-65
2022/01/21 05:42:42;;;;;;;9.65;2.08;;;;;;;1.62;89.78;103382.06;5055351;28;20029;-64
2022/01/21 05:47:34;;;;;;;7.60;2.13;;;;;;;1.76;90.47;103382.31;5055466;28;20487;-65
2022/01/21 05:49:59;;;;;;;7.15;1.85;;;;;;;1.79;90.44;103388.09;5055291;28;20031;-64
2022/01/21 05:52:45;;;;;;;9.60;1.80;;;;;;;1.84;90.29;103380.22;5055174;28;20060;-65
2022/01/21 05:55:11;;;;;;;13.88;1.95;;;;;;;1.90;90.15;103386.78;5055505;28;20029;-64
2022/01/21 05:57:36;;;;;;;10.13;2.03;;;;;;;1.92;90.02;103372.25;5055126;28;20021;-65
2022/01/21 06:00:02;;;;;;;10.80;1.90;;;;;;;1.92;90.47;103390.94;5055030;28;20109;-64
2022/01/21 06:02:27;;;;;;;9.20;1.75;;;;;;;1.91;90.47;103388.47;5055196;28;20021;-65
2022/01/21 06:04:53;;;;;;;11.10;1.70;;;;;;;1.95;90.37;103400.16;5036963;28;20526;-63
2022/01/21 06:07:18;;;;;;;13.30;1.83;;;;;;;1.99;91.02;103400.00;5054887;28;20032;-65
2022/01/21 06:09:44;;;;;;;13.70;2.08;;;;;;;2.12;90.50;103399.44;5054813;28;20051;-64
2022/01/21 06:12:10;;;;;;;8.98;1.70;;;;;;;2.23;90.68;103405.72;5054764;28;20535;-64
2022/01/21 06:14:36;;;;;;;13.05;1.92;;;;;;;2.34;89.88;103399.34;5036928;28;20051;-63
2022/01/21 06:17:02;;;;;;;13.50;2.13;;;;;;;2.32;90.22;103413.88;5053137;28;20043;-63
2022/01/21 06:19:27;;;;;;;16.60;2.60;;;;;;;2.46;90.06;103411.53;5054634;28;20021;-64
2022/01/21 06:21:52;;;;;;;16.95;2.35;;;;;;;2.53;90.23;103418.00;5054578;28;20060;-64
2022/01/21 06:24:18;;;;;;;15.25;3.03;;;;;;;2.58;90.09;103416.06;5054525;28;20384;-64
2022/01/21 06:26:44;;;;;;;20.70;3.60;;;;;;;2.60;89.48;103413.47;5036619;28;20490;-65
2022/01/21 06:29:10;;;;;;;16.05;5.40;;;;;;;2.52;89.71;103412.97;5036610;28;20052;-65
2022/01/21 06:31:35;;;;;;;16.88;4.60;;;;;;;2.62;90.20;103417.59;5054328;28;20530;-65
2022/01/21 06:34:00;;;;;;;9.50;1.92;;;;;;;2.67;89.64;103410.53;5054272;28;20467;-66
2022/01/21 06:36:26;;;;;;;13.38;3.53;;;;;;;2.67;90.06;103415.66;5054616;28;20083;-65
2022/01/21 06:38:51;;;;;;;19.02;6.30;;;;;;;2.63;90.07;103409.03;5054236;28;20025;-63
2022/01/21 06:41:16;;;;;;;14.82;5.10;;;;;;;2.72;89.60;103413.72;5036162;28;20037;-64
2022/01/21 06:43:42;;;;;;;17.52;4.70;;;;;;;2.68;90.05;103424.16;5054002;28;20025;-70
2022/01/21 06:46:09;;;;;;;8.50;2.53;;;;;;;2.66;89.62;103436.16;5054120;28;20025;-70
2022/01/21 06:48:34;;;;;;;11.68;3.03;;;;;;;2.59;89.65;103438.19;5054475;28;20060;-70
2022/01/21 06:50:59;;;;;;;14.02;2.70;;;;;;;2.57;89.14;103434.03;5036123;28;20118;-69
2022/01/21 06:53:25;;;;;;;18.33;3.25;;;;;;;2.56;90.07;103429.81;5053942;28;20032;-70
2022/01/21 06:55:50;;;;;;;7.25;2.05;;;;;;;2.53;89.60;103437.59;5054102;28;20375;-70
2022/01/21 06:58:16;;;;;;;8.85;2.13;;;;;;;2.42;90.07;103436.38;5054069;28;20120;-69
2022/01/21 07:00:41;;;;;;;11.77;2.30;;;;;;;2.33;90.32;103433.38;5053817;28;20486;-70
2022/01/21 07:03:06;;;;;;;10.25;2.40;;;;;;;2.26;91.26;103435.38;5035861;28;20031;-69
2022/01/21 07:05:32;;;;;;;10.07;2.88;;;;;;;2.36;90.65;103431.53;5053628;28;20111;-71
2022/01/21 07:07:58;;;;;;;6.03;2.20;;;;;;;2.32;89.90;103436.84;5053750;28;20031;-69
2022/01/21 07:10:25;;;;;;;7.72;2.10;;;;;;;2.21;90.14;103457.72;5035677;28;20020;-70
2022/01/21 07:12:50;;;;;;;9.95;1.90;;;;;;;2.26;90.92;103453.25;5035665;28;20148;-70
2022/01/21 07:15:18;;;;;;;9.05;2.00;;;;;;;2.29;90.56;103450.56;5053735;28;20056;-69
2022/01/21 07:17:43;;;;;;;5.95;2.10;;;;;;;2.30;90.64;103452.19;5053541;28;20490;-71
2022/01/21 07:20:09;;;;;;;6.72;2.13;;;;;;;2.33;89.86;103444.44;5035382;28;20120;-70
2022/01/21 07:22:35;;;;;;;10.38;2.17;;;;;;;2.23;89.85;103446.56;5035148;28;20048;-69
2022/01/21 07:25:00;;;;;;;7.65;2.40;;;;;;;2.17;89.34;103444.28;5053722;28;20024;-71
2022/01/21 07:27:25;;;;;;;11.98;3.28;;;;;;;2.16;89.61;103447.72;5052739;28;20031;-70
2022/01/21 07:29:51;;;;;;;9.27;2.63;;;;;;;2.20;89.98;103431.38;5052824;28;20099;-69
2022/01/21 07:32:16;;;;;;;6.40;2.10;;;;;;;2.18;89.99;103429.78;5034984;28;20057;-70
2022/01/21 07:34:42;;;;;;;12.90;2.20;;;;;;;2.25;90.21;103437.13;5035560;28;20459;-70
2022/01/21 07:37:07;;;;;;;10.23;2.22;;;;;;;2.25;89.95;103437.13;5053347;28;20048;-69
2022/01/21 07:39:33;;;;;;;9.07;2.60;;;;;;;2.40;89.91;103430.50;5034591;28;20115;-70
2022/01/21 07:41:58;;;;;;;7.90;2.10;;;;;;;2.49;89.35;103436.91;5052993;28;20024;-70
2022/01/21 07:44:23;;;;;;;14.30;2.90;;;;;;;2.29;89.17;103435.25;5053099;28;20029;-71
2022/01/21 07:46:49;;;;;;;12.68;3.20;;;;;;;2.33;89.61;103430.81;5035997;28;20111;-70
2022/01/21 07:49:16;;;;;;;12.70;4.22;;;;;;;2.42;89.59;103430.44;5036157;28;20513;-70
2022/01/21 07:51:41;;;;;;;10.10;4.38;;;;;;;2.42;89.11;103428.72;5053655;28;20025;-70
2022/01/21 07:54:07;;;;;;;8.88;3.78;;;;;;;2.30;90.17;103426.69;5053152;28;20028;-70
2022/01/21 07:56:34;;;;;;;10.75;4.00;;;;;;;2.46;90.52;103429.41;5035592;28;20025;-69
2022/01/21 07:59:03;;;;;;;26.63;4.18;;;;;;;2.48;89.82;103437.81;5053120;28;20490;-70
2022/01/21 08:01:28;;;;;;;10.65;4.25;;;;;;;2.42;88.99;103445.75;5053818;28;20032;-71
2022/01/21 08:03:53;;;;;;;15.48;3.30;;;;;;;2.54;89.79;103452.03;5054581;28;20025;-69
2022/01/21 08:06:19;;;;;;;10.48;3.08;;;;;;;2.53;89.73;103458.84;5035904;28;20036;-69
2022/01/21 08:08:44;;;;;;;8.65;2.90;;;;;;;2.58;89.35;103451.00;5036287;28;20029;-70
2022/01/21 08:11:09;;;;;;;6.70;2.67;;;;;;;2.57;88.95;103460.38;5036046;28;20033;-70
2022/01/21 08:13:35;;;;;;;9.38;2.65;;;;;;;2.56;88.65;103447.66;5032793;28;20492;-69
2022/01/21 08:16:00;;;;;;;13.75;2.75;;;;;;;2.55;89.12;103454.50;5031386;28;20028;-69
2022/01/21 08:18:26;;;;;;;8.93;3.03;;;;;;;2.50;88.59;103448.78;5032446;28;20048;-70
2022/01/21 08:20:51;;;;;;;14.82;3.70;;;;;;;2.45;89.30;103448.19;5034008;28;20026;-71
2022/01/21 08:23:17;;;;;;;10.75;3.33;;;;;;;2.48;88.90;103451.41;5034105;28;20029;-70
2022/01/21 08:25:43;;;;;;;12.75;3.20;;;;;;;2.54;89.51;103452.84;5032769;28;20422;-71
2022/01/21 08:28:08;;;;;;;14.82;3.65;;;;;;;2.64;89.14;103441.31;5034005;28;20079;-71
2022/01/21 08:30:34;;;;;;;12.48;3.00;;;;;;;2.83;88.44;103443.06;5034832;28;20475;-70
2022/01/21 08:33:00;;;;;;;13.13;3.60;;;;;;;2.91;88.16;103438.41;5034894;28;20112;-70
2022/01/21 08:35:26;;;;;;;13.60;3.67;;;;;;;3.23;87.99;103428.41;5033792;28;20075;-71
2022/01/21 08:37:54;;;;;;;15.05;4.13;;;;;;;3.46;87.59;103430.66;5035657;28;20021;-72
2022/01/21 08:40:21;;;;;;;14.05;4.45;;;;;;;3.66;86.16;103418.63;5033557;28;20068;-69
2022/01/21 08:42:46;;;;;;;13.75;3.88;;;;;;;3.71;86.04;103424.31;5034773;28;20502;-71
2022/01/21 08:45:12;;;;;;;12.95;3.63;;;;;;;3.69;86.58;103426.16;5035143;28;20029;-70
2022/01/21 08:47:42;;;;;;;9.52;3.40;;;;;;;3.81;86.62;103428.06;5036644;28;20033;-71
2022/01/21 08:50:11;;;;;;;17.23;3.50;;;;;;;3.72;87.64;103421.69;5034562;28;20032;-71
2022/01/21 08:52:38;;;;;;;13.93;3.10;;;;;;;3.76;87.99;103418.06;5034660;28;20025;-72
2022/01/21 08:55:07;;;;;;;10.20;2.90;;;;;;;3.80;87.00;103419.59;5035862;28;20502;-71
2022/01/21 08:57:34;;;;;;;13.27;3.20;;;;;;;3.88;87.73;103408.94;5035077;28;20079;-71
2022/01/21 09:00:00;;;;;;;11.02;2.90;;;;;;;3.94;87.80;103424.00;5036504;28;20031;-71
2022/01/21 09:02:25;;;;;;;15.43;2.70;;;;;;;4.13;87.16;103428.97;5039076;28;20434;-71
2022/01/21 09:04:51;;;;;;;9.05;2.80;;;;;;;4.15;85.60;103416.94;5038750;28;20104;-71
2022/01/21 09:07:16;;;;;;;17.58;3.45;;;;;;;4.25;85.97;103423.22;5039241;28;20065;-72
2022/01/21 09:09:41;;;;;;;9.45;2.75;;;;;;;4.42;85.78;103414.63;5038172;28;20029;-70
2022/01/21 09:12:07;;;;;;;16.30;2.38;;;;;;;4.66;85.18;103419.34;5038922;28;20049;-71
2022/01/21 09:14:33;;;;;;;21.10;2.60;;;;;;;4.64;83.99;103414.31;5058404;28;20048;-71
2022/01/21 09:16:59;;;;;;;17.38;2.67;;;;;;;4.73;84.94;103421.50;5058674;28;20025;-71
2022/01/21 09:19:26;;;;;;;18.23;2.70;;;;;;;5.26;83.96;103421.97;5040265;28;20425;-71
2022/01/21 09:21:52;;;;;;;12.82;2.50;;;;;;;5.46;82.94;103420.00;5037398;28;20025;-70
2022/01/21 09:24:19;;;;;;;9.23;2.40;;;;;;;4.90;83.72;103418.00;5055110;28;20032;-70
2022/01/21 09:26:45;;;;;;;17.20;2.75;;;;;;;4.75;85.23;103421.44;5055053;28;20032;-70
2022/01/21 09:29:11;;;;;;;12.73;2.30;;;;;;;4.62;85.89;103431.50;5037570;28;20024;-69
2022/01/21 09:31:37;;;;;;;13.68;2.60;;;;;;;4.84;85.52;103433.72;5055460;28;20036;-70
2022/01/21 09:34:04;;;;;;;15.43;2.50;;;;;;;5.05;85.06;103441.13;5036904;28;20044;-70
2022/01/21 09:36:30;;;;;;;20.77;3.58;;;;;;;5.42;84.14;103440.72;5055336;28;20039;-70
2022/01/21 09:38:55;;;;;;;19.30;3.08;;;;;;;5.80;82.82;103454.78;5037524;28;20017;-70
2022/01/21 09:41:21;;;;;;;13.85;2.85;;;;;;;5.50;82.95;103453.09;5037257;28;20067;-70
2022/01/21 09:43:47;;;;;;;17.95;2.75;;;;;;;5.18;85.10;103457.50;5036960;28;20124;-71
2022/01/21 09:46:13;;;;;;;13.27;2.60;;;;;;;5.06;86.60;103458.97;5037219;28;20054;-72
2022/01/21 09:48:55;;;;;;;14.85;3.53;;;;;;;4.88;86.73;103458.25;5054693;28;20039;-70
2022/01/21 09:51:20;;;;;;;22.35;3.38;;;;;;;4.89;87.67;103452.25;5054651;28;20476;-70
2022/01/21 09:53:46;;;;;;;17.30;3.33;;;;;;;4.97;87.85;103455.19;5055508;28;20104;-70
2022/01/21 09:56:14;;;;;;;15.07;3.25;;;;;;;5.26;86.48;103452.75;5054992;28;20031;-73
2022/01/21 09:58:43;;;;;;;27.17;4.18;;;;;;;5.34;86.52;103460.84;5037049;28;20021;-72
2022/01/21 10:01:09;;;;;;;20.73;3.33;;;;;;;5.36;86.88;103453.88;5054944;28;20036;-72
2022/01/21 10:03:35;;;;;;;15.77;2.90;;;;;;;6.17;84.96;103468.06;5054843;28;20029;-72
2022/01/21 10:06:02;;;;;;;17.52;3.00;;;;;;;6.20;83.70;103460.16;5036758;28;20435;-71
2022/01/21 10:08:28;;;;;;;15.55;2.80;;;;;;;5.93;85.24;103466.03;5036458;28;20025;-72
2022/01/21 10:10:54;;;;;;;14.35;2.60;;;;;;;6.15;85.90;103478.41;5052602;28;20025;-71
2022/01/21 10:13:20;;;;;;;21.55;3.13;;;;;;;6.53;82.54;103476.09;5054140;28;20484;-77
2022/01/21 10:15:46;;;;;;;18.13;2.60;;;;;;;7.87;79.09;103467.50;5054938;28;20078;-70
2022/01/21 10:18:13;;;;;;;14.52;2.90;;;;;;;7.95;77.17;103469.56;5036739;28;20055;-71
2022/01/21 10:21:05;;;;;;;15.27;2.72;;;;;;;8.43;75.11;103472.28;5054811;28;20078;-69
2022/01/21 10:23:33;;;;;;;11.55;2.60;;;;;;;10.47;68.19;103464.97;5036676;28;20052;-70
2022/01/21 10:26:11;;;;;;;21.33;3.45;;;;;;;8.85;73.29;103458.13;5053830;28;20049;-69
2022/01/21 10:28:41;;;;;;;20.80;3.50;;;;;;;11.17;69.22;103459.34;5036453;28;20056;-69
2022/01/21 10:31:11;;;;;;;18.80;3.42;;;;;;;11.40;64.95;103448.88;5036378;28;20036;-70
2022/01/21 10:33:48;;;;;;;17.65;3.03;;;;;;;8.51;74.33;103450.22;5036282;28;20031;-70
2022/01/21 10:36:26;;;;;;;14.02;3.08;;;;;;;7.05;80.79;103460.88;5054388;28;20070;-69
2022/01/21 10:38:57;;;;;;;13.95;3.17;;;;;;;6.81;83.55;103451.22;5036016;28;20551;-70
2022/01/21 10:41:30;;;;;;;16.83;3.03;;;;;;;6.62;83.42;103461.00;5034660;28;20048;-69
2022/01/21 10:44:11;;;;;;;17.88;2.75;;;;;;;6.41;84.39;103442.63;5051356;28;20029;-70
2022/01/21 10:46:38;;;;;;;14.35;2.53;;;;;;;6.40;84.81;103453.81;5032793;28;20025;-71
2022/01/21 10:49:10;;;;;;;18.27;3.03;;;;;;;6.48;85.41;103447.28;5032671;28;20423;-70
2022/01/21 10:51:38;;;;;;;14.07;2.88;;;;;;;6.45;86.88;103449.22;5050847;28;20025;-69
2022/01/21 10:54:28;;;;;;;20.58;3.50;;;;;;;6.49;86.60;103448.09;5052200;28;20021;-70
2022/01/21 10:57:14;;;;;;;15.57;3.08;;;;;;;6.58;87.09;103449.28;5035005;28;20040;-70
2022/01/21 11:00:02;;;;;;;14.93;2.65;;;;;;;6.62;86.84;103455.88;5052677;28;20033;-70
2022/01/21 11:02:28;;;;;;;17.80;2.75;;;;;;;6.67;85.77;103459.81;5051871;28;20111;-69
2022/01/21 11:04:54;;;;;;;12.27;2.80;;;;;;;6.55;85.99;103450.28;5053126;28;20096;-70
2022/01/21 11:08:13;;;;;;;11.93;2.08;;;;;;;6.61;86.79;103455.06;5052331;28;20052;-70
2022/01/21 11:10:45;;;;;;;10.07;2.20;;;;;;;6.52;86.12;103458.19;5052859;28;20024;-70
2022/01/21 11:13:16;;;;;;;19.40;2.63;;;;;;;6.45;86.72;103459.50;5052831;28;20053;-70
2022/01/21 11:15:46;;;;;;;16.08;2.05;;;;;;;6.46;85.51;103451.69;5053789;28;20033;-70
2022/01/21 11:18:15;;;;;;;12.60;2.50;;;;;;;6.62;85.82;103456.72;5035745;28;20120;-69
2022/01/21 11:20:43;;;;;;;10.07;2.28;;;;;;;6.84;84.48;103447.66;5035151;28;20139;-68
2022/01/21 11:23:09;;;;;;;18.20;2.83;;;;;;;6.87;85.37;103452.59;5052623;28;20029;-71
2022/01/21 11:25:56;;;;;;;15.52;2.10;;;;;;;7.09;83.18;103458.03;5035482;28;20031;-71
2022/01/21 11:28:27;;;;;;;13.00;2.00;;;;;;;6.94;84.15;103446.16;5036377;28;20025;-70
2022/01/21 11:30:54;;;;;;;12.85;1.95;;;;;;;6.92;83.67;103448.00;5035545;28;20107;-71
2022/01/21 11:33:21;;;;;;;18.65;3.20;;;;;;;6.88;83.52;103449.94;5035800;28;20017;-70
2022/01/21 11:35:48;;;;;;;12.38;2.30;;;;;;;6.94;82.15;103438.44;5035610;28;20472;-70
2022/01/21 11:38:16;;;;;;;12.35;2.00;;;;;;;6.86;83.28;103415.78;5054329;28;20024;-70
2022/01/21 11:40:42;;;;;;;16.92;2.15;;;;;;;6.99;82.79;103406.38;5035992;28;20024;-70
2022/01/21 11:43:10;;;;;;;16.40;2.25;;;;;;;6.89;83.21;103417.34;5053553;28;20037;-71
2022/01/21 11:50:42;;;;;;;13.15;1.88;;;;;;;7.59;80.61;103410.13;5053999;28;20055;-71
2022/01/21 11:53:07;;;;;;;11.60;1.90;;;;;;;7.08;82.32;103415.25;5053846;28;20414;-71
2022/01/21 11:55:36;;;;;;;14.48;2.40;;;;;;;6.95;84.07;103435.75;5054922;28;20029;-74
2022/01/21 11:58:22;;;;;;;12.07;2.08;;;;;;;6.61;83.66;103425.97;5040290;28;20052;-73
2022/01/21 12:00:51;;;;;;;19.35;2.55;;;;;;;6.63;85.08;103416.44;5057587;28;20079;-72
2022/01/21 12:03:23;;;;;;;13.43;2.50;;;;;;;6.51;86.12;103415.44;5057142;28;20040;-73
2022/01/21 12:05:49;;;;;;;15.57;2.08;;;;;;;6.54;85.49;103418.66;5038470;28;20025;-73
2022/01/21 12:08:15;;;;;;;13.45;2.05;;;;;;;6.52;86.68;103424.78;5056171;28;20053;-74
2022/01/21 12:10:42;;;;;;;14.45;2.03;;;;;;;6.62;86.61;103427.59;5038019;28;20032;-72
2022/01/21 12:13:12;;;;;;;13.32;2.10;;;;;;;6.73;86.08;103409.78;5038840;28;20110;-74
2022/01/21 12:15:45;;;;;;;15.10;2.25;;;;;;;6.80;85.31;103421.31;5038547;28;20135;-72
2022/01/21 12:21:29;;;;;;;16.08;2.72;;;;;;;6.81;84.89;103422.16;5052801;28;20536;-69